Time;durP1;ratioP1;P1;durP2;ratioP2;P2;SDS_P1;SDS_P2;PMS_P1;PMS_P2;Temp;Humidity;BMP_temperature;BMP_pressure;BME280_temperature;BME280_humidity;BME280_pressure;Samples;Min_cycle;Max_cycle;Signal;HPM_P1;HPM_P2
2023/06/06 00:00:19;;;;;;;3.27;2.37;;;15.20;1.00;;;;;;5108469;28;20265;-80
2023/06/06 00:02:45;;;;;;;3.40;2.60;;;15.20;1.00;;;;;;5126989;28;20249;-80
2023/06/06 00:05:15;;;;;;;4.20;3.00;;;15.10;92.90;;;;;;5127568;28;20172;-80
2023/06/06 00:07:42;;;;;;;3.07;2.60;;;15.10;44.30;;;;;;5108777;28;20227;-80
2023/06/06 00:10:09;;;;;;;3.53;2.50;;;15.10;1.00;;;;;;5127566;28;20176;-80
2023/06/06 00:12:36;;;;;;;3.63;2.30;;;15.10;1.00;;;;;;5108474;28;20182;-80
2023/06/06 00:15:03;;;;;;;3.10;2.50;;;15.20;1.00;;;;;;5127395;28;20175;-80
2023/06/06 00:17:29;;;;;;;2.70;2.50;;;15.10;1.00;;;;;;5109163;28;20217;-81
2023/06/06 00:19:56;;;;;;;3.00;2.53;;;14.90;1.00;;;;;;5127103;28;20556;-80
2023/06/06 00:22:23;;;;;;;3.37;2.40;;;14.70;22.20;;;;;;5108918;28;20253;-80
2023/06/06 00:24:49;;;;;;;2.60;2.40;;;14.70;99.90;;;;;;5127416;28;20191;-80
2023/06/06 00:27:15;;;;;;;3.13;2.30;;;14.50;99.90;;;;;;5108182;28;20172;-80
2023/06/06 00:29:41;;;;;;;2.87;2.33;;;14.50;99.90;;;;;;5108032;28;20196;-82
2023/06/06 00:32:06;;;;;;;3.23;2.33;;;14.50;99.90;;;;;;5108958;28;20543;-80
2023/06/06 00:34:32;;;;;;;2.90;2.40;;;14.40;99.90;;;;;;5127381;28;20174;-80
2023/06/06 00:36:58;;;;;;;5.60;2.80;;;14.60;99.90;;;;;;5108828;28;20214;-80
2023/06/06 00:39:23;;;;;;;3.00;2.37;;;14.60;52.40;;;;;;5108993;28;20217;-81
2023/06/06 00:41:49;;;;;;;2.90;2.40;;;14.60;55.20;;;;;;5108027;28;20186;-80
2023/06/06 00:44:15;;;;;;;2.90;2.60;;;14.40;99.90;;;;;;5108387;28;20180;-82
2023/06/06 00:46:42;;;;;;;4.10;2.43;;;14.30;99.90;;;;;;5108256;28;20566;-80
2023/06/06 00:49:13;;;;;;;2.63;2.43;;;14.40;1.00;;;;;;5100837;22;20283;-80
2023/06/06 00:51:40;;;;;;;3.77;2.47;;;14.30;99.90;;;;;;5075121;28;20550;-80
2023/06/06 00:54:07;;;;;;;3.10;2.73;;;14.10;1.00;;;;;;5075203;28;20180;-80
2023/06/06 00:56:36;;;;;;;3.13;2.57;;;14.10;1.00;;;;;;5075368;28;20183;-80
2023/06/06 00:59:03;;;;;;;2.50;2.30;;;14.20;1.00;;;;;;5076858;28;20203;-80
2023/06/06 01:01:30;;;;;;;3.00;2.70;;;14.10;99.90;;;;;;5076258;28;20206;-80
2023/06/06 01:04:00;;;;;;;3.00;2.63;;;13.90;1.00;;;;;;5076852;28;20172;-80
2023/06/06 01:06:26;;;;;;;3.87;2.40;;;13.80;1.00;;;;;;5077181;28;20157;-80
2023/06/06 01:08:51;;;;;;;3.80;2.77;;;13.70;1.00;;;;;;5075562;28;20219;-80
2023/06/06 01:11:25;;;;;;;4.53;2.80;;;13.50;99.90;;;;;;5076250;28;20274;-80
2023/06/06 01:14:18;;;;;;;3.03;2.50;;;13.50;99.90;;;;;;5075606;28;20202;-80
2023/06/06 01:16:49;;;;;;;3.83;2.93;;;13.50;1.00;;;;;;5071147;28;20196;-79
2023/06/06 01:19:20;;;;;;;3.30;2.60;;;13.30;99.90;;;;;;5074954;28;20232;-80
2023/06/06 01:21:46;;;;;;;3.10;2.80;;;13.20;99.90;;;;;;5075015;28;20169;-81
2023/06/06 01:24:13;;;;;;;2.60;2.40;;;13.50;99.90;;;;;;5076371;28;20327;-80
2023/06/06 01:26:38;;;;;;;3.10;2.27;;;13.30;1.00;;;;;;5076673;28;20245;-80
2023/06/06 01:29:04;;;;;;;3.47;2.93;;;13.30;99.90;;;;;;5074716;28;20691;-80
2023/06/06 01:31:36;;;;;;;4.00;2.77;;;13.00;1.00;;;;;;5075911;28;20165;-80
2023/06/06 01:34:08;;;;;;;3.20;2.83;;;13.10;1.00;;;;;;5076404;28;20619;-80
2023/06/06 01:36:48;;;;;;;3.00;2.70;;;13.00;1.00;;;;;;5076215;28;20540;-80
2023/06/06 01:39:18;;;;;;;3.53;2.50;;;13.00;1.00;;;;;;5074738;28;20196;-80
2023/06/06 01:41:45;;;;;;;3.53;2.97;;;12.90;1.00;;;;;;5074714;28;20657;-80
2023/06/06 01:44:12;;;;;;;4.00;2.80;;;13.20;1.00;;;;;;5075133;28;20292;-80
2023/06/06 01:46:40;;;;;;;3.20;2.90;;;13.20;99.90;;;;;;5075415;28;20280;-80
2023/06/06 01:49:07;;;;;;;4.07;3.00;;;13.10;1.00;;;;;;5074974;28;20702;-80
2023/06/06 01:51:33;;;;;;;4.47;3.10;;;12.80;99.90;;;;;;5076263;28;20177;-80
2023/06/06 01:53:58;;;;;;;4.27;3.00;;;12.80;99.90;;;;;;5075422;28;20530;-80
2023/06/06 01:56:25;;;;;;;3.23;2.70;;;12.80;99.90;;;;;;5075736;28;20165;-80
2023/06/06 01:58:52;;;;;;;3.60;2.70;;;12.90;1.00;;;;;;5076205;28;20250;-79
2023/06/06 02:01:17;;;;;;;4.53;3.10;;;12.80;1.00;;;;;;5074430;28;20172;-80
2023/06/06 02:03:44;;;;;;;3.43;2.80;;;12.80;1.00;;;;;;5075806;28;20322;-80
2023/06/06 02:06:09;;;;;;;3.40;3.10;;;12.80;99.90;;;;;;5074842;28;20173;-80
2023/06/06 02:08:35;;;;;;;3.30;3.00;;;12.80;15.10;;;;;;5075886;28;20208;-80
2023/06/06 02:11:00;;;;;;;3.43;2.80;;;12.80;1.00;;;;;;5074332;28;20165;-80
2023/06/06 02:13:26;;;;;;;3.70;2.90;;;12.70;99.90;;;;;;5076465;28;20168;-79
2023/06/06 02:15:52;;;;;;;3.50;2.87;;;12.70;1.00;;;;;;5074559;28;20577;-80
2023/06/06 02:18:17;;;;;;;3.27;2.97;;;12.50;99.90;;;;;;5074400;28;20671;-80
2023/06/06 02:20:43;;;;;;;3.00;2.70;;;12.50;99.90;;;;;;5074391;28;20183;-80
2023/06/06 02:23:09;;;;;;;3.43;2.70;;;12.50;1.00;;;;;;5076188;28;20268;-80
2023/06/06 02:25:37;;;;;;;4.13;3.17;;;12.60;99.90;;;;;;5075644;28;20204;-80
2023/06/06 02:28:03;;;;;;;3.43;2.80;;;12.60;1.00;;;;;;5075421;28;20249;-80
2023/06/06 02:30:30;;;;;;;3.07;2.77;;;12.60;99.90;;;;;;5074331;28;20177;-80
2023/06/06 02:32:56;;;;;;;4.27;3.03;;;12.60;99.90;;;;;;5074958;28;20180;-80
2023/06/06 02:35:22;;;;;;;3.57;2.80;;;12.50;99.90;;;;;;5075479;28;20248;-80
2023/06/06 02:37:47;;;;;;;3.53;2.70;;;12.40;99.90;;;;;;5074700;28;20628;-80
2023/06/06 02:40:14;;;;;;;3.30;2.80;;;12.30;99.90;;;;;;5074570;28;20516;-80
2023/06/06 02:42:40;;;;;;;4.00;3.00;;;12.30;1.00;;;;;;5074637;28;20219;-80
2023/06/06 02:45:09;;;;;;;4.50;3.07;;;12.40;1.00;;;;;;5075941;28;20173;-80
2023/06/06 02:47:37;;;;;;;3.40;3.00;;;12.40;1.00;;;;;;5074043;28;20630;-80
2023/06/06 02:50:03;;;;;;;3.13;2.70;;;12.60;99.90;;;;;;5075892;28;20197;-80
2023/06/06 02:52:31;;;;;;;3.30;2.90;;;12.60;54.10;;;;;;5075563;28;20179;-80
2023/06/06 02:54:57;;;;;;;3.20;2.90;;;12.50;99.90;;;;;;5075391;28;20177;-80
2023/06/06 02:57:23;;;;;;;3.20;2.90;;;12.60;99.90;;;;;;5077758;28;20529;-80
2023/06/06 02:59:48;;;;;;;5.60;3.00;;;12.40;47.70;;;;;;5078068;28;20250;-80
2023/06/06 03:02:18;;;;;;;3.30;2.90;;;12.40;99.90;;;;;;5079335;28;20188;-80
2023/06/06 03:04:44;;;;;;;4.17;2.70;;;12.40;99.90;;;;;;5078394;28;20196;-80
2023/06/06 03:07:10;;;;;;;4.07;3.10;;;12.50;1.00;;;;;;5079642;28;20220;-80
2023/06/06 03:09:37;;;;;;;3.20;2.87;;;12.40;1.00;;;;;;5077897;28;20232;-77
2023/06/06 03:12:03;;;;;;;3.87;3.30;;;12.30;99.90;;;;;;5078348;28;20177;-80
2023/06/06 03:14:28;;;;;;;3.57;2.87;;;12.20;99.90;;;;;;5079108;28;20259;-80
2023/06/06 03:16:55;;;;;;;4.00;3.00;;;12.30;1.00;;;;;;5079292;28;20207;-80
2023/06/06 03:19:22;;;;;;;4.80;3.50;;;12.30;99.90;;;;;;5079242;28;20197;-80
2023/06/06 03:21:48;;;;;;;5.03;3.13;;;12.40;1.00;;;;;;5077728;28;20173;-80
2023/06/06 03:24:15;;;;;;;4.37;3.23;;;12.60;99.90;;;;;;5079206;28;20200;-80
2023/06/06 03:26:44;;;;;;;3.43;3.13;;;12.50;99.90;;;;;;5077742;28;20177;-80
2023/06/06 03:29:10;;;;;;;3.37;3.07;;;12.50;1.00;;;;;;5077889;28;20197;-80
2023/06/06 03:31:37;;;;;;;4.03;3.03;;;12.40;98.00;;;;;;5077436;28;20179;-80
2023/06/06 03:34:03;;;;;;;3.23;2.93;;;12.30;69.80;;;;;;5077698;28;20180;-80
2023/06/06 03:36:32;;;;;;;3.93;3.30;;;12.10;1.00;;;;;;5077897;28;20173;-79
2023/06/06 03:39:02;;;;;;;4.50;3.00;;;12.10;1.00;;;;;;5078048;28;20197;-80
2023/06/06 03:41:27;;;;;;;5.40;3.43;;;12.10;1.00;;;;;;5078554;28;20173;-79
2023/06/06 03:43:54;;;;;;;3.70;3.00;;;12.10;1.00;;;;;;5078291;28;20176;-80
2023/06/06 03:46:19;;;;;;;3.40;3.10;;;12.10;1.00;;;;;;5078363;28;20205;-80
2023/06/06 03:48:45;;;;;;;4.47;3.33;;;12.10;1.00;;;;;;5077626;28;20207;-78
2023/06/06 03:51:11;;;;;;;3.73;3.10;;;11.90;3.90;;;;;;5077509;28;20546;-81
2023/06/06 03:53:36;;;;;;;4.10;3.00;;;12.00;99.90;;;;;;5077280;28;20168;-80
2023/06/06 03:56:04;;;;;;;3.60;3.03;;;12.10;1.00;;;;;;5077252;28;20180;-80
2023/06/06 03:58:30;;;;;;;3.63;3.00;;;12.10;1.00;;;;;;5078770;28;20192;-80
2023/06/06 04:00:58;;;;;;;3.57;3.20;;;12.00;1.00;;;;;;5078021;28;20176;-80
2023/06/06 04:03:24;;;;;;;3.37;3.07;;;12.00;1.00;;;;;;5077372;28;20184;-80
2023/06/06 04:05:50;;;;;;;4.67;3.37;;;12.00;99.90;;;;;;5077260;28;20636;-80
2023/06/06 04:08:16;;;;;;;4.93;3.53;;;11.80;99.90;;;;;;5078075;28;20257;-80
2023/06/06 04:10:42;;;;;;;4.33;3.40;;;11.90;99.90;;;;;;5077755;28;20243;-80
2023/06/06 04:13:07;;;;;;;3.80;3.27;;;12.00;1.00;;;;;;5078357;28;20173;-80
2023/06/06 04:15:34;;;;;;;4.03;3.47;;;12.00;99.90;;;;;;5076650;28;20202;-80
2023/06/06 04:18:00;;;;;;;3.70;3.27;;;12.00;1.00;;;;;;5076987;28;20287;-81
2023/06/06 04:20:26;;;;;;;5.30;4.17;;;12.10;1.00;;;;;;5076525;28;20200;-80
2023/06/06 04:22:52;;;;;;;3.90;3.40;;;12.10;1.00;;;;;;5076460;28;20170;-80
2023/06/06 04:25:18;;;;;;;3.93;3.13;;;12.20;1.00;;;;;;5076863;28;20227;-79
2023/06/06 04:27:44;;;;;;;3.57;3.23;;;12.30;1.00;;;;;;5077348;28;20210;-80
2023/06/06 04:30:14;;;;;;;3.83;3.43;;;12.30;1.00;;;;;;5076351;28;20193;-80
2023/06/06 04:32:40;;;;;;;4.17;3.30;;;12.10;99.90;;;;;;5076272;28;20262;-80
2023/06/06 04:35:11;;;;;;;3.30;3.00;;;12.00;99.90;;;;;;5075998;28;20601;-80
2023/06/06 04:37:37;;;;;;;3.43;2.97;;;12.00;1.00;;;;;;5077405;28;20175;-80
2023/06/06 04:40:06;;;;;;;4.13;3.50;;;12.00;7.40;;;;;;5077452;28;20183;-80
2023/06/06 04:42:34;;;;;;;3.87;3.47;;;12.10;99.90;;;;;;5072014;28;20203;-80
2023/06/06 04:45:03;;;;;;;3.93;3.33;;;12.30;99.90;;;;;;5069310;28;20181;-80
2023/06/06 04:47:29;;;;;;;3.90;3.47;;;12.60;1.00;;;;;;5076201;28;20234;-80
2023/06/06 04:49:56;;;;;;;3.50;3.20;;;12.60;99.90;;;;;;5075723;28;20232;-80
2023/06/06 04:52:23;;;;;;;4.57;3.63;;;12.70;99.90;;;;;;5077505;28;20176;-80
2023/06/06 04:54:49;;;;;;;3.90;3.50;;;12.90;99.90;;;;;;5077447;28;20183;-80
2023/06/06 04:57:16;;;;;;;4.70;3.37;;;13.00;1.00;;;;;;5077158;28;20260;-80
2023/06/06 04:59:51;;;;;;;4.03;3.60;;;13.00;1.00;;;;;;5075233;28;20189;-80
2023/06/06 05:02:20;;;;;;;4.67;3.90;;;13.10;1.00;;;;;;5077139;28;20157;-80
2023/06/06 05:04:48;;;;;;;4.83;3.77;;;13.10;31.00;;;;;;5076014;28;20530;-80
2023/06/06 05:07:14;;;;;;;4.40;4.00;;;13.00;99.90;;;;;;5072345;28;20186;-80
2023/06/06 05:09:39;;;;;;;5.73;3.80;;;12.90;99.90;;;;;;5062865;28;20217;-81
2023/06/06 05:12:05;;;;;;;5.03;4.00;;;12.90;99.90;;;;;;5054842;28;20181;-81
2023/06/06 05:14:30;;;;;;;4.03;3.63;;;12.90;1.00;;;;;;5052840;28;20184;-81
2023/06/06 05:16:57;;;;;;;4.83;3.60;;;13.00;99.90;;;;;;5054575;28;20263;-81
2023/06/06 05:19:23;;;;;;;4.90;3.97;;;13.00;1.00;;;;;;5052176;28;20719;-81
2023/06/06 05:21:49;;;;;;;4.00;3.60;;;13.00;99.90;;;;;;5054455;28;20181;-81
2023/06/06 05:24:15;;;;;;;6.03;3.97;;;13.10;99.90;;;;;;5054204;28;20177;-81
2023/06/06 05:26:41;;;;;;;5.63;4.00;;;13.20;1.00;;;;;;5052715;28;20205;-81
2023/06/06 05:29:07;;;;;;;6.23;4.33;;;13.20;1.00;;;;;;5052922;28;20296;-81
2023/06/06 05:31:33;;;;;;;6.30;4.00;;;13.10;99.90;;;;;;5053119;28;20216;-81
2023/06/06 05:34:00;;;;;;;6.07;4.00;;;13.20;99.90;;;;;;5054662;28;20165;-81
2023/06/06 05:36:25;;;;;;;4.77;4.20;;;13.40;1.00;;;;;;5052879;28;20169;-81
2023/06/06 05:38:51;;;;;;;3.30;3.00;;;13.50;1.00;;;;;;5052487;28;20197;-77
2023/06/06 05:41:18;;;;;;;4.70;3.73;;;13.90;1.00;;;;;;5052192;28;20216;-80
2023/06/06 05:43:50;;;;;;;4.40;3.77;;;14.40;1.00;;;;;;5053546;28;20177;-80
2023/06/06 05:46:16;;;;;;;4.53;4.10;;;14.90;1.00;;;;;;5053173;28;20648;-80
2023/06/06 05:48:42;;;;;;;5.10;4.13;;;15.10;99.90;;;;;;5052801;28;20243;-79
2023/06/06 05:51:08;;;;;;;4.83;4.17;;;15.00;99.90;;;;;;5051503;28;20170;-79
2023/06/06 05:53:44;;;;;;;5.90;4.23;;;14.90;1.00;;;;;;5051525;28;20177;-78
2023/06/06 05:56:13;;;;;;;4.43;4.00;;;14.90;99.90;;;;;;5051741;28;20166;-81
2023/06/06 05:58:40;;;;;;;4.37;3.97;;;14.80;1.00;;;;;;5051454;28;20637;-82
2023/06/06 06:01:06;;;;;;;5.10;4.10;;;14.80;99.90;;;;;;5051610;28;20173;-79
2023/06/06 06:03:33;;;;;;;4.20;3.77;;;15.00;1.00;;;;;;5052786;28;20763;-78
2023/06/06 06:06:04;;;;;;;6.30;4.37;;;15.10;1.00;;;;;;5053059;28;20170;-79
2023/06/06 06:08:31;;;;;;;5.07;4.17;;;15.30;1.00;;;;;;5052872;28;20206;-79
2023/06/06 06:10:56;;;;;;;5.80;4.60;;;15.50;99.90;;;;;;5051717;28;20223;-80
2023/06/06 06:13:22;;;;;;;4.97;4.23;;;15.60;1.00;;;;;;5051905;28;20173;-79
2023/06/06 06:15:48;;;;;;;7.07;4.60;;;15.50;1.00;;;;;;5053252;28;20178;-79
2023/06/06 06:18:14;;;;;;;6.70;4.63;;;15.50;1.00;;;;;;5069493;28;20211;-81
2023/06/06 06:20:40;;;;;;;5.13;4.07;;;15.40;1.00;;;;;;5073602;28;20210;-81
2023/06/06 06:23:06;;;;;;;5.87;4.63;;;15.50;99.90;;;;;;5074110;28;20177;-81
2023/06/06 06:25:31;;;;;;;5.10;4.47;;;15.50;80.20;;;;;;5073799;28;20169;-82
2023/06/06 06:27:57;;;;;;;6.20;4.63;;;15.60;1.00;;;;;;5073249;28;20280;-82
2023/06/06 06:30:23;;;;;;;4.50;4.10;;;15.60;1.00;;;;;;5073616;28;20187;-82
2023/06/06 06:32:48;;;;;;;6.03;4.37;;;15.70;1.00;;;;;;5072616;28;20226;-82
2023/06/06 06:35:14;;;;;;;5.40;4.90;;;15.70;99.90;;;;;;5072681;28;20191;-81
2023/06/06 06:37:40;;;;;;;6.07;4.40;;;15.70;1.00;;;;;;5073654;28;20251;-82
2023/06/06 06:40:10;;;;;;;5.00;4.20;;;15.80;1.00;;;;;;5073973;28;20173;-81
2023/06/06 06:42:44;;;;;;;5.67;3.90;;;15.90;1.00;;;;;;5074172;28;20176;-81
2023/06/06 06:45:12;;;;;;;4.33;3.70;;;15.90;99.90;;;;;;5072461;28;20172;-81
2023/06/06 06:47:38;;;;;;;4.53;4.10;;;16.00;99.90;;;;;;5062964;28;20180;-82
2023/06/06 06:50:05;;;;;;;4.60;3.60;;;16.20;99.90;;;;;;5072065;28;20644;-83
2023/06/06 06:52:35;;;;;;;5.57;3.57;;;16.30;1.00;;;;;;5073689;28;20195;-82
2023/06/06 06:55:03;;;;;;;5.60;3.80;;;16.40;1.00;;;;;;5071865;28;20268;-82
2023/06/06 06:57:29;;;;;;;3.60;3.30;;;16.50;1.00;;;;;;5071754;28;20248;-82
2023/06/06 07:00:18;;;;;;;4.70;3.40;;;16.60;1.00;;;;;;5070474;28;20177;-79
2023/06/06 07:02:44;;;;;;;3.50;3.20;;;16.80;1.00;;;;;;5064869;28;20200;-82
2023/06/06 07:05:10;;;;;;;3.57;3.27;;;17.00;1.00;;;;;;5069681;28;20185;-82
2023/06/06 07:07:47;;;;;;;3.47;3.17;;;17.10;1.00;;;;;;5072768;28;20173;-82
2023/06/06 07:10:16;;;;;;;4.43;3.50;;;17.30;1.00;;;;;;5067668;28;20200;-81
2023/06/06 07:12:49;;;;;;;3.73;3.30;;;17.50;99.90;;;;;;5073220;28;20236;-81
2023/06/06 07:15:15;;;;;;;3.87;3.17;;;17.60;99.90;;;;;;5075857;28;20165;-81
2023/06/06 07:17:46;;;;;;;3.47;3.17;;;17.80;1.00;;;;;;5075571;28;20169;-81
2023/06/06 07:20:12;;;;;;;4.07;3.50;;;18.00;1.00;;;;;;5071970;28;20203;-81
2023/06/06 07:22:37;;;;;;;3.83;3.30;;;18.10;99.90;;;;;;5071433;28;20173;-80
2023/06/06 07:25:07;;;;;;;3.93;3.47;;;18.20;99.90;;;;;;5071215;28;20173;-81
2023/06/06 07:27:37;;;;;;;4.03;3.10;;;18.30;99.90;;;;;;5072510;28;20248;-81
2023/06/06 07:30:05;;;;;;;3.50;2.90;;;18.30;99.90;;;;;;5071472;28;20204;-82
2023/06/06 07:32:30;;;;;;;3.27;2.97;;;18.50;99.90;;;;;;5072882;28;20172;-81
2023/06/06 07:34:56;;;;;;;5.13;3.30;;;18.60;99.90;;;;;;5071576;28;20169;-81
2023/06/06 07:37:22;;;;;;;3.70;3.30;;;18.70;99.90;;;;;;5072880;28;20173;-81
2023/06/06 07:39:48;;;;;;;4.10;3.30;;;18.80;99.90;;;;;;5071300;28;20204;-81
2023/06/06 07:42:13;;;;;;;3.57;3.00;;;19.00;99.90;;;;;;5073039;28;20204;-81
2023/06/06 07:44:39;;;;;;;4.00;3.20;;;19.20;99.90;;;;;;5075589;28;20177;-82
2023/06/06 07:47:04;;;;;;;3.27;2.47;;;19.40;99.90;;;;;;5074942;28;20175;-81
2023/06/06 07:49:30;;;;;;;3.13;2.80;;;19.60;99.90;;;;;;5076224;28;20679;-82
2023/06/06 07:51:56;;;;;;;3.07;2.80;;;19.90;99.90;;;;;;5076201;28;20191;-81
2023/06/06 07:54:21;;;;;;;2.93;2.60;;;20.10;92.20;;;;;;5074707;28;20217;-82
2023/06/06 07:56:47;;;;;;;3.67;2.90;;;20.30;1.00;;;;;;5078980;28;20169;-84
2023/06/06 07:59:13;;;;;;;3.47;2.40;;;20.60;1.00;;;;;;5076260;28;20575;-82
2023/06/06 08:01:38;;;;;;;3.23;2.60;;;20.80;1.00;;;;;;5075726;28;20184;-82
2023/06/06 08:04:07;;;;;;;3.03;2.60;;;20.80;1.00;;;;;;5075136;28;20587;-82
2023/06/06 08:06:37;;;;;;;2.95;2.40;;;20.90;1.00;;;;;;5076393;28;20264;-82
2023/06/06 08:09:06;;;;;;;2.72;2.50;;;21.10;1.00;;;;;;5074637;28;20196;-82
2023/06/06 08:11:35;;;;;;;2.80;2.30;;;21.20;1.00;;;;;;5074560;28;20168;-82
2023/06/06 08:14:01;;;;;;;2.83;2.20;;;21.40;1.00;;;;;;5075880;28;20200;-81
2023/06/06 08:16:27;;;;;;;2.90;2.47;;;21.50;1.00;;;;;;5075433;28;20177;-82
2023/06/06 08:18:52;;;;;;;3.38;2.60;;;21.70;1.00;;;;;;5076112;28;20204;-82
2023/06/06 08:21:18;;;;;;;3.05;2.38;;;21.80;1.00;;;;;;5075946;28;20553;-82
2023/06/06 08:23:43;;;;;;;4.72;2.38;;;21.70;1.00;;;;;;5078060;28;20180;-82
2023/06/06 08:26:09;;;;;;;2.88;2.38;;;21.80;1.00;;;;;;5075383;28;20196;-82
2023/06/06 08:28:34;;;;;;;2.50;2.30;;;21.80;99.90;;;;;;5074209;28;20584;-82
2023/06/06 08:31:03;;;;;;;2.35;2.15;;;21.70;99.90;;;;;;5074571;28;20175;-82
2023/06/06 08:33:30;;;;;;;3.17;2.40;;;21.80;99.90;;;;;;5074157;28;20215;-82
2023/06/06 08:35:55;;;;;;;3.50;2.47;;;22.00;99.90;;;;;;5075534;28;20173;-82
2023/06/06 08:38:21;;;;;;;2.70;2.33;;;22.10;99.90;;;;;;5073847;28;20192;-82
2023/06/06 08:40:48;;;;;;;3.33;2.30;;;22.00;99.90;;;;;;5073218;28;20199;-82
2023/06/06 08:43:15;;;;;;;2.90;2.30;;;22.30;99.90;;;;;;5075263;28;20180;-82
2023/06/06 08:45:46;;;;;;;2.83;2.13;;;22.50;99.90;;;;;;5075404;28;20218;-82
2023/06/06 08:48:14;;;;;;;3.38;2.30;;;22.60;99.90;;;;;;5076173;28;20205;-82
2023/06/06 08:50:42;;;;;;;5.65;2.42;;;22.80;99.90;;;;;;5075265;28;20180;-82
2023/06/06 08:53:08;;;;;;;2.47;2.28;;;22.70;99.90;;;;;;5073018;28;20219;-82
2023/06/06 08:55:35;;;;;;;2.50;2.28;;;22.80;99.90;;;;;;5074180;28;20176;-82
2023/06/06 08:58:03;;;;;;;3.53;2.40;;;23.00;99.90;;;;;;5075524;28;20181;-82
2023/06/06 09:00:29;;;;;;;2.63;2.30;;;23.20;99.90;;;;;;5073041;28;20226;-82
2023/06/06 09:02:55;;;;;;;3.05;2.45;;;23.20;99.90;;;;;;5074838;28;20173;-82
2023/06/06 09:05:21;;;;;;;3.13;2.53;;;23.30;99.90;;;;;;5073605;28;20169;-82
2023/06/06 09:07:52;;;;;;;4.88;2.10;;;23.50;99.90;;;;;;5073235;28;20173;-82
2023/06/06 09:10:17;;;;;;;3.00;2.50;;;23.50;99.90;;;;;;5074526;28;20643;-82
2023/06/06 09:12:46;;;;;;;2.50;2.30;;;23.60;99.90;;;;;;5074403;28;20243;-82
2023/06/06 09:15:12;;;;;;;3.72;2.47;;;23.60;99.90;;;;;;5074391;28;20627;-82
2023/06/06 09:17:38;;;;;;;3.22;2.47;;;23.80;99.90;;;;;;5072822;28;20264;-82
2023/06/06 09:20:11;;;;;;;3.53;2.38;;;23.90;99.90;;;;;;5074171;28;20264;-82
2023/06/06 09:22:47;;;;;;;3.15;2.20;;;23.50;99.90;;;;;;5072504;28;20209;-82
2023/06/06 09:25:23;;;;;;;3.08;2.58;;;23.40;99.90;;;;;;5073372;28;20168;-82
2023/06/06 09:28:00;;;;;;;3.30;2.20;;;23.30;99.90;;;;;;5072974;28;20267;-82
2023/06/06 09:30:27;;;;;;;3.03;2.30;;;23.40;99.90;;;;;;5072246;28;20208;-82
2023/06/06 09:32:57;;;;;;;2.88;2.20;;;23.20;99.90;;;;;;5074515;28;20173;-82
2023/06/06 09:35:23;;;;;;;3.42;2.10;;;23.50;99.90;;;;;;5072705;28;20248;-82
2023/06/06 09:37:49;;;;;;;2.47;2.20;;;24.00;99.90;;;;;;5072982;28;20192;-82
2023/06/06 09:40:17;;;;;;;2.40;2.20;;;24.40;99.90;;;;;;5074096;28;20174;-82
2023/06/06 09:42:45;;;;;;;2.78;2.30;;;24.60;99.90;;;;;;5072723;28;20177;-82
2023/06/06 09:45:18;;;;;;;3.50;2.38;;;24.70;99.90;;;;;;5074017;28;20173;-82
2023/06/06 09:47:45;;;;;;;3.75;1.92;;;24.60;99.90;;;;;;5072402;28;20188;-82
2023/06/06 09:50:13;;;;;;;2.55;2.20;;;24.50;99.90;;;;;;5072321;28;20205;-82
2023/06/06 09:52:39;;;;;;;4.20;2.30;;;24.60;99.90;;;;;;5073295;28;20197;-82
2023/06/06 09:55:07;;;;;;;2.72;2.10;;;24.70;99.90;;;;;;5075814;28;20168;-82
2023/06/06 09:57:38;;;;;;;2.67;2.20;;;24.90;99.90;;;;;;5074872;28;20298;-82
2023/06/06 10:00:10;;;;;;;3.15;2.05;;;25.20;99.90;;;;;;5072322;28;20398;-82
2023/06/06 10:02:42;;;;;;;3.47;2.30;;;25.10;99.90;;;;;;5072523;28;20177;-83
2023/06/06 10:05:09;;;;;;;2.67;2.05;;;25.20;99.90;;;;;;5072072;28;20173;-82
2023/06/06 10:07:35;;;;;;;2.55;2.17;;;25.10;99.90;;;;;;5072414;28;20173;-82
2023/06/06 10:10:01;;;;;;;3.20;2.30;;;25.10;99.90;;;;;;5072128;28;20200;-82
2023/06/06 10:12:31;;;;;;;2.50;2.30;;;25.20;99.90;;;;;;5072697;28;20175;-82
2023/06/06 10:14:58;;;;;;;2.65;2.45;;;25.10;99.90;;;;;;5073473;28;20169;-80
2023/06/06 10:17:25;;;;;;;2.80;2.03;;;25.00;99.90;;;;;;5073519;28;20173;-83
2023/06/06 10:19:56;;;;;;;3.45;2.38;;;25.10;99.90;;;;;;5073436;28;20193;-82
2023/06/06 10:22:22;;;;;;;3.25;2.20;;;24.60;99.90;;;;;;5073294;28;20652;-82
2023/06/06 10:24:48;;;;;;;2.25;2.05;;;24.60;99.90;;;;;;5072438;28;20183;-82
2023/06/06 10:27:21;;;;;;;2.42;2.20;;;24.90;99.90;;;;;;5072210;28;20223;-82
2023/06/06 10:30:08;;;;;;;2.20;2.00;;;24.80;99.90;;;;;;5071872;28;20235;-82
2023/06/06 10:33:01;;;;;;;4.63;2.22;;;24.20;99.90;;;;;;5073596;28;20240;-82
2023/06/06 10:35:28;;;;;;;4.00;2.40;;;24.10;99.90;;;;;;5070917;28;20168;-82
2023/06/06 10:38:09;;;;;;;2.35;2.00;;;24.50;99.90;;;;;;5071569;28;20222;-83
2023/06/06 10:40:51;;;;;;;2.22;2.03;;;24.60;99.90;;;;;;5073492;28;20173;-81
2023/06/06 10:43:32;;;;;;;2.42;2.10;;;24.40;99.90;;;;;;5071776;28;20172;-82
2023/06/06 10:45:58;;;;;;;2.40;2.10;;;24.90;99.90;;;;;;5072166;28;20164;-82
2023/06/06 10:48:45;;;;;;;4.15;2.20;;;25.20;99.90;;;;;;5072782;28;20695;-82
2023/06/06 10:51:31;;;;;;;2.20;1.85;;;25.20;99.90;;;;;;5071739;28;20183;-82
2023/06/06 10:54:26;;;;;;;2.28;1.98;;;25.30;99.90;;;;;;5071867;28;20637;-82
2023/06/06 10:56:54;;;;;;;2.47;2.28;;;25.10;99.90;;;;;;5072069;28;20177;-82
2023/06/06 10:59:26;;;;;;;2.58;2.38;;;25.20;99.90;;;;;;5071790;28;20193;-82
2023/06/06 11:01:53;;;;;;;2.83;2.20;;;25.50;99.90;;;;;;5073737;28;20177;-82
2023/06/06 11:04:20;;;;;;;2.50;2.10;;;25.50;99.90;;;;;;5078245;28;20177;-81
2023/06/06 11:06:50;;;;;;;2.40;2.13;;;25.70;99.90;;;;;;5074459;28;20223;-82
2023/06/06 11:09:32;;;;;;;2.72;1.90;;;25.50;99.90;;;;;;5072947;28;20189;-82
2023/06/06 11:12:13;;;;;;;3.38;1.85;;;25.90;99.90;;;;;;5071687;28;20169;-82
2023/06/06 11:14:58;;;;;;;2.63;2.03;;;25.90;99.90;;;;;;5071856;28;20208;-82
2023/06/06 11:17:31;;;;;;;2.65;2.10;;;26.10;99.90;;;;;;5075092;28;20181;-82
2023/06/06 11:20:00;;;;;;;3.63;1.77;;;26.00;99.90;;;;;;5076949;28;20162;-82
2023/06/06 11:22:27;;;;;;;2.67;2.00;;;26.10;99.90;;;;;;5075633;28;20176;-82
2023/06/06 11:24:56;;;;;;;2.45;2.10;;;26.30;99.90;;;;;;5077126;28;20209;-83
2023/06/06 11:27:21;;;;;;;2.63;2.03;;;26.30;99.90;;;;;;5076890;28;20232;-82
2023/06/06 11:29:47;;;;;;;2.50;2.30;;;26.20;99.90;;;;;;5075917;28;20224;-82
2023/06/06 11:32:14;;;;;;;2.80;2.10;;;26.30;99.90;;;;;;5077390;28;20602;-83
2023/06/06 11:34:40;;;;;;;3.45;1.98;;;26.00;99.90;;;;;;5075906;28;20205;-82
2023/06/06 11:37:08;;;;;;;2.85;2.08;;;25.50;99.90;;;;;;5079745;28;20192;-82
2023/06/06 11:39:34;;;;;;;2.10;2.00;;;25.80;99.90;;;;;;5076817;28;20215;-82
2023/06/06 11:42:00;;;;;;;2.78;2.13;;;26.40;99.90;;;;;;5075116;28;20176;-82
2023/06/06 11:44:37;;;;;;;3.05;2.03;;;25.80;99.90;;;;;;5076164;28;20177;-82
2023/06/06 11:47:08;;;;;;;2.25;1.80;;;25.50;99.90;;;;;;5075339;28;20169;-83
2023/06/06 11:49:45;;;;;;;2.35;1.90;;;25.70;99.90;;;;;;5076157;28;20239;-82
2023/06/06 11:52:11;;;;;;;3.25;1.90;;;26.00;99.90;;;;;;5077099;28;20172;-81
2023/06/06 11:54:38;;;;;;;2.60;2.00;;;25.90;99.90;;;;;;5076797;28;20303;-82
2023/06/06 11:57:05;;;;;;;2.75;2.10;;;26.10;99.90;;;;;;5076490;28;20173;-82
2023/06/06 11:59:34;;;;;;;1.98;1.80;;;26.40;99.90;;;;;;5074832;28;20197;-82
2023/06/06 12:02:00;;;;;;;2.50;1.73;;;25.70;99.90;;;;;;5075980;28;20183;-82
2023/06/06 12:04:27;;;;;;;3.22;2.08;;;24.90;99.90;;;;;;5074789;28;20244;-82
2023/06/06 12:06:54;;;;;;;2.17;1.98;;;24.90;99.90;;;;;;5076061;28;20670;-82
2023/06/06 12:09:23;;;;;;;2.45;1.80;;;24.50;99.90;;;;;;5074716;28;20201;-82
2023/06/06 12:11:59;;;;;;;3.10;1.95;;;24.20;99.90;;;;;;5074693;28;20169;-82
2023/06/06 12:14:26;;;;;;;3.75;2.03;;;24.20;99.90;;;;;;5074641;28;20226;-82
2023/06/06 12:17:00;;;;;;;3.03;2.03;;;24.60;99.90;;;;;;5074572;28;20250;-82
2023/06/06 12:19:26;;;;;;;2.45;2.13;;;24.70;99.90;;;;;;5074380;28;20199;-82
2023/06/06 12:21:51;;;;;;;3.13;2.00;;;24.90;99.90;;;;;;5074132;28;20177;-82
2023/06/06 12:24:29;;;;;;;2.67;1.92;;;24.90;99.90;;;;;;5075542;28;20580;-83
2023/06/06 12:27:00;;;;;;;2.80;2.30;;;25.10;99.90;;;;;;5074562;28;20180;-82
2023/06/06 12:29:36;;;;;;;2.20;1.80;;;25.50;99.90;;;;;;5075305;28;20234;-82
2023/06/06 12:32:16;;;;;;;2.75;1.70;;;25.90;99.90;;;;;;5075879;28;20632;-82
2023/06/06 12:34:43;;;;;;;3.42;2.00;;;26.10;99.90;;;;;;5074063;28;20212;-82
2023/06/06 12:37:10;;;;;;;2.10;1.85;;;26.10;99.90;;;;;;5074569;28;20165;-82
2023/06/06 12:39:39;;;;;;;3.95;2.40;;;26.10;99.90;;;;;;5075134;28;20197;-81
2023/06/06 12:42:25;;;;;;;2.30;2.10;;;25.70;99.90;;;;;;5074314;28;20177;-82
2023/06/06 12:44:51;;;;;;;2.30;1.90;;;25.30;99.90;;;;;;5073777;28;20674;-81
2023/06/06 12:47:21;;;;;;;2.25;1.92;;;25.60;99.90;;;;;;5075325;28;20181;-82
2023/06/06 12:49:47;;;;;;;2.05;1.85;;;26.10;99.90;;;;;;5074750;28;20208;-82
2023/06/06 12:52:13;;;;;;;2.22;1.80;;;26.50;99.90;;;;;;5074379;28;20173;-82
2023/06/06 12:54:42;;;;;;;2.67;1.92;;;27.10;99.90;;;;;;5075075;28;20180;-82